Time;durP1;ratioP1;P1;durP2;ratioP2;P2;SDS_P1;SDS_P2;PMS_P1;PMS_P2;Temp;Humidity;BMP_temperature;BMP_pressure;BME280_temperature;BME280_humidity;BME280_pressure;Samples;Min_cycle;Max_cycle;Signal;HPM_P1;HPM_P2
2022/10/19 00:01:03;;;;;;;12.13;7.90;;;16.40;99.90;;;;;;4988580;28;20419;-66
2022/10/19 00:03:29;;;;;;;10.23;8.83;;;16.50;99.90;;;;;;4990183;28;20451;-67
2022/10/19 00:05:55;;;;;;;15.40;8.37;;;16.40;99.90;;;;;;4989644;28;20976;-67
2022/10/19 00:08:20;;;;;;;16.50;7.97;;;16.50;43.50;;;;;;4989785;28;20240;-66
2022/10/19 00:10:46;;;;;;;21.73;9.20;;;16.50;1.00;;;;;;4988818;28;20188;-67
2022/10/19 00:13:12;;;;;;;32.37;10.50;;;16.50;1.00;;;;;;4989456;28;20168;-67
2022/10/19 00:15:39;;;;;;;30.93;9.10;;;16.50;1.00;;;;;;4989395;28;20546;-66
2022/10/19 00:18:05;;;;;;;24.00;8.90;;;16.60;1.00;;;;;;4989175;28;20584;-67
2022/10/19 00:20:31;;;;;;;20.87;9.03;;;16.50;1.00;;;;;;4988692;28;20436;-67
2022/10/19 00:22:56;;;;;;;29.60;9.03;;;16.60;1.00;;;;;;4989811;28;20473;-67
2022/10/19 00:25:23;;;;;;;20.37;10.50;;;16.50;1.00;;;;;;4988986;28;20212;-67
2022/10/19 00:27:48;;;;;;;13.30;9.47;;;16.50;1.00;;;;;;4989911;28;20165;-66
2022/10/19 00:30:14;;;;;;;9.00;8.10;;;16.50;1.00;;;;;;4989812;28;20826;-67
2022/10/19 00:32:40;;;;;;;11.37;8.20;;;16.40;1.00;;;;;;4989151;28;20175;-66
2022/10/19 00:35:06;;;;;;;14.33;9.97;;;16.30;1.00;;;;;;4990586;28;20168;-67
2022/10/19 00:37:32;;;;;;;9.63;8.70;;;16.30;1.00;;;;;;4989900;28;20177;-67
2022/10/19 00:39:57;;;;;;;10.13;8.97;;;16.30;1.00;;;;;;4989998;28;20531;-67
2022/10/19 00:42:23;;;;;;;30.90;10.83;;;16.30;1.00;;;;;;4989601;28;20169;-67
2022/10/19 00:44:49;;;;;;;17.93;9.87;;;16.20;1.00;;;;;;4990091;28;20208;-67
2022/10/19 00:47:17;;;;;;;18.93;9.87;;;16.20;1.00;;;;;;4989273;28;20184;-65
2022/10/19 00:49:47;;;;;;;15.27;8.93;;;16.20;1.00;;;;;;4989538;28;20744;-67
2022/10/19 00:52:16;;;;;;;14.13;8.43;;;16.10;1.00;;;;;;4988910;28;20408;-67
2022/10/19 00:54:43;;;;;;;10.43;8.27;;;16.00;1.00;;;;;;4989530;28;20458;-67
2022/10/19 00:57:10;;;;;;;9.17;7.97;;;16.00;1.00;;;;;;4989478;28;20404;-67
2022/10/19 00:59:36;;;;;;;10.70;8.10;;;16.00;1.00;;;;;;4989338;28;20467;-67
2022/10/19 01:02:04;;;;;;;9.10;8.20;;;15.80;1.00;;;;;;5004331;28;20554;-67
2022/10/19 01:04:33;;;;;;;9.63;7.53;;;15.70;99.90;;;;;;5008469;28;20649;-67
2022/10/19 01:07:00;;;;;;;9.37;7.27;;;15.80;99.90;;;;;;5008681;28;20920;-67
2022/10/19 01:09:26;;;;;;;11.03;8.97;;;15.90;1.00;;;;;;5008680;28;20465;-67
2022/10/19 01:12:18;;;;;;;9.50;8.50;;;15.80;25.20;;;;;;5007565;28;20884;-66
2022/10/19 01:15:02;;;;;;;15.47;9.40;;;15.80;4.20;;;;;;5008811;28;20248;-67
2022/10/19 01:17:27;;;;;;;28.33;9.80;;;15.80;22.00;;;;;;5007868;28;20415;-67
2022/10/19 01:19:56;;;;;;;16.60;9.00;;;15.70;99.90;;;;;;5008348;28;20492;-65
2022/10/19 01:22:58;;;;;;;14.77;7.93;;;15.70;99.90;;;;;;5008262;28;20649;-66
2022/10/19 01:25:46;;;;;;;9.40;8.40;;;15.80;77.20;;;;;;5009289;28;20429;-66
2022/10/19 01:28:31;;;;;;;21.10;9.50;;;15.70;99.90;;;;;;5012343;28;20406;-66
2022/10/19 01:31:04;;;;;;;12.17;8.20;;;15.60;99.90;;;;;;5036338;22;20453;-68
2022/10/19 01:33:51;;;;;;;10.10;8.30;;;15.60;99.90;;;;;;5024213;28;21056;-68
2022/10/19 01:36:40;;;;;;;14.77;8.67;;;15.50;99.90;;;;;;5031687;28;20720;-69
2022/10/19 01:39:34;;;;;;;14.20;10.00;;;15.30;99.90;;;;;;5031536;28;20409;-68
2022/10/19 01:42:15;;;;;;;12.27;8.83;;;15.30;1.00;;;;;;5030192;28;20469;-68
2022/10/19 01:44:53;;;;;;;10.10;9.10;;;15.40;99.90;;;;;;5032248;28;20449;-67
2022/10/19 01:47:25;;;;;;;12.63;8.80;;;15.40;99.90;;;;;;5034247;28;20516;-68
2022/10/19 01:49:59;;;;;;;10.87;9.80;;;15.40;99.90;;;;;;5042693;28;20391;-70
2022/10/19 01:52:26;;;;;;;12.50;10.23;;;15.40;99.90;;;;;;5023919;28;20466;-69
2022/10/19 01:54:56;;;;;;;10.73;9.70;;;15.40;99.90;;;;;;5042044;28;20486;-71
2022/10/19 01:57:29;;;;;;;14.73;10.00;;;15.40;99.90;;;;;;5042386;28;20398;-70
2022/10/19 01:59:57;;;;;;;10.27;9.20;;;15.30;99.90;;;;;;5042978;28;20733;-67
2022/10/19 02:02:25;;;;;;;13.33;10.07;;;15.30;99.90;;;;;;5042446;28;20430;-70
2022/10/19 02:04:54;;;;;;;10.97;9.47;;;15.30;1.00;;;;;;5042630;28;20450;-70
2022/10/19 02:07:21;;;;;;;9.87;8.73;;;15.30;99.90;;;;;;5025297;28;20909;-70
2022/10/19 02:09:47;;;;;;;12.03;10.93;;;15.20;1.00;;;;;;5015908;28;20920;-68
2022/10/19 02:12:15;;;;;;;11.67;9.80;;;15.10;1.00;;;;;;5030823;28;20484;-68
2022/10/19 02:14:45;;;;;;;54.10;12.60;;;15.10;1.00;;;;;;5031940;28;20464;-68
2022/10/19 02:17:14;;;;;;;16.87;11.20;;;15.10;1.00;;;;;;5030914;28;20911;-68
2022/10/19 02:19:42;;;;;;;11.77;9.10;;;15.10;1.00;;;;;;5031595;28;20438;-70
2022/10/19 02:22:09;;;;;;;9.53;8.43;;;15.20;1.00;;;;;;5030507;28;20445;-69
2022/10/19 02:24:34;;;;;;;12.93;9.80;;;15.20;1.00;;;;;;5031210;28;20791;-68
2022/10/19 02:27:04;;;;;;;11.63;10.43;;;15.30;1.00;;;;;;5031174;28;20402;-68
2022/10/19 02:29:31;;;;;;;14.03;10.70;;;15.30;1.00;;;;;;5031591;28;20160;-70
2022/10/19 02:31:58;;;;;;;12.23;9.50;;;15.40;1.00;;;;;;5029265;28;21000;-67
2022/10/19 02:34:24;;;;;;;18.00;11.80;;;15.50;1.00;;;;;;5031260;28;21036;-69
2022/10/19 02:36:50;;;;;;;21.73;13.67;;;15.50;1.00;;;;;;5030916;28;20411;-69
2022/10/19 02:39:16;;;;;;;19.57;11.73;;;15.50;1.00;;;;;;5031288;28;20422;-69
2022/10/19 02:41:48;;;;;;;19.30;12.50;;;15.60;1.00;;;;;;5030503;28;20619;-69
2022/10/19 02:44:26;;;;;;;14.53;12.27;;;15.60;1.00;;;;;;5030748;28;20199;-68
2022/10/19 02:47:13;;;;;;;19.47;13.00;;;15.50;1.00;;;;;;5030205;28;20407;-68
2022/10/19 02:49:41;;;;;;;16.60;12.53;;;15.30;1.00;;;;;;5031173;28;20398;-68
2022/10/19 02:52:09;;;;;;;17.37;12.50;;;15.10;1.00;;;;;;5029940;28;20958;-68
2022/10/19 02:54:36;;;;;;;16.63;13.37;;;15.00;1.00;;;;;;5031075;28;20407;-68
2022/10/19 02:57:06;;;;;;;18.63;15.67;;;15.10;1.00;;;;;;5030618;28;20409;-68
2022/10/19 02:59:32;;;;;;;17.27;13.63;;;15.10;1.00;;;;;;5030628;28;20502;-67
2022/10/19 03:01:58;;;;;;;17.40;14.33;;;15.00;1.00;;;;;;5029274;28;20426;-67
2022/10/19 03:04:23;;;;;;;20.07;14.33;;;15.00;1.00;;;;;;5030642;28;20620;-68
2022/10/19 03:06:49;;;;;;;19.37;14.20;;;15.10;1.00;;;;;;5030207;28;20191;-69
2022/10/19 03:09:15;;;;;;;22.40;16.03;;;15.10;1.00;;;;;;5030633;28;20601;-69
2022/10/19 03:11:40;;;;;;;20.83;15.87;;;15.10;1.00;;;;;;5029863;28;20278;-69
2022/10/19 03:14:06;;;;;;;23.30;14.97;;;15.00;1.00;;;;;;5030526;28;20175;-68
2022/10/19 03:16:32;;;;;;;23.00;15.30;;;15.10;1.00;;;;;;5030106;28;20229;-68
2022/10/19 03:18:57;;;;;;;35.07;16.37;;;15.10;1.00;;;;;;5030565;28;20172;-69
2022/10/19 03:21:23;;;;;;;21.50;16.40;;;14.90;1.00;;;;;;5029679;28;20196;-69
2022/10/19 03:23:49;;;;;;;27.10;17.10;;;14.90;1.00;;;;;;5030141;28;20245;-70
2022/10/19 03:26:16;;;;;;;18.93;13.87;;;15.00;1.00;;;;;;5030042;28;20179;-69
2022/10/19 03:28:41;;;;;;;21.97;14.90;;;14.90;1.00;;;;;;5030145;28;20167;-69
2022/10/19 03:31:07;;;;;;;26.93;14.77;;;14.80;1.00;;;;;;5028569;28;20588;-68
2022/10/19 03:33:33;;;;;;;31.13;15.27;;;14.70;1.00;;;;;;5030322;28;20163;-69
2022/10/19 03:36:14;;;;;;;26.23;14.83;;;14.70;1.00;;;;;;5030001;28;20168;-70
2022/10/19 03:38:39;;;;;;;29.00;14.70;;;14.60;1.00;;;;;;5030348;28;20198;-68
2022/10/19 03:41:06;;;;;;;16.17;13.80;;;14.60;1.00;;;;;;5029034;28;20859;-69
2022/10/19 03:43:32;;;;;;;21.83;15.40;;;14.70;1.00;;;;;;5030051;28;20207;-68
2022/10/19 03:45:58;;;;;;;26.30;15.90;;;14.80;1.00;;;;;;5029460;28;20414;-69
2022/10/19 03:48:23;;;;;;;17.57;14.33;;;14.90;1.00;;;;;;5029154;28;20164;-69
2022/10/19 03:51:01;;;;;;;19.43;15.90;;;15.00;1.00;;;;;;5028736;28;20864;-69
2022/10/19 03:53:27;;;;;;;23.13;14.77;;;15.10;1.00;;;;;;5029513;28;20255;-68
2022/10/19 03:55:59;;;;;;;31.97;17.20;;;15.20;1.00;;;;;;5029343;28;20895;-68
2022/10/19 03:58:24;;;;;;;24.93;16.27;;;15.00;1.00;;;;;;5029370;28;20402;-70
2022/10/19 04:00:50;;;;;;;22.47;16.17;;;14.80;1.00;;;;;;5028439;28;20413;-68
2022/10/19 04:03:15;;;;;;;25.27;16.10;;;14.80;1.00;;;;;;5028937;28;20272;-69
2022/10/19 04:05:41;;;;;;;21.33;16.37;;;14.80;1.00;;;;;;5029322;28;20251;-70
2022/10/19 04:08:07;;;;;;;23.43;15.17;;;14.90;1.00;;;;;;5029512;28;20171;-69
2022/10/19 04:10:33;;;;;;;24.03;15.90;;;14.90;1.00;;;;;;5028504;28;20636;-69
2022/10/19 04:12:58;;;;;;;24.73;16.70;;;14.80;1.00;;;;;;5031167;28;20442;-68
2022/10/19 04:15:24;;;;;;;28.20;17.10;;;14.90;1.00;;;;;;5031062;28;20461;-67
2022/10/19 04:17:50;;;;;;;23.00;17.03;;;15.00;1.00;;;;;;5029679;28;20250;-69
2022/10/19 04:20:16;;;;;;;22.73;17.30;;;15.20;1.00;;;;;;5029842;28;20176;-70
2022/10/19 04:22:41;;;;;;;23.23;17.47;;;15.20;1.00;;;;;;5029210;28;20711;-69
2022/10/19 04:25:09;;;;;;;21.10;15.90;;;15.30;1.00;;;;;;5028150;28;20223;-69
2022/10/19 04:27:35;;;;;;;25.30;18.90;;;15.30;1.00;;;;;;5028255;28;20209;-69
2022/10/19 04:30:01;;;;;;;22.93;17.90;;;15.30;1.00;;;;;;5029040;28;20438;-69
2022/10/19 04:32:26;;;;;;;23.80;17.60;;;15.20;1.00;;;;;;5017636;28;20306;-69
2022/10/19 04:34:52;;;;;;;23.97;17.40;;;15.30;1.00;;;;;;5026207;28;20175;-71
2022/10/19 04:37:18;;;;;;;24.27;19.23;;;15.30;1.00;;;;;;5027953;28;20171;-69
2022/10/19 04:39:43;;;;;;;23.40;17.33;;;15.30;1.00;;;;;;5027672;28;20175;-70
2022/10/19 04:42:09;;;;;;;22.07;16.60;;;15.20;1.00;;;;;;5026646;28;20202;-69
2022/10/19 04:44:35;;;;;;;19.30;16.07;;;15.20;1.00;;;;;;5027257;28;20222;-68
2022/10/19 04:47:01;;;;;;;22.20;16.73;;;15.10;1.00;;;;;;5027547;28;20172;-69
2022/10/19 04:49:26;;;;;;;24.33;17.10;;;15.20;1.00;;;;;;5027140;28;20170;-68
2022/10/19 04:51:52;;;;;;;22.77;16.57;;;15.20;1.00;;;;;;5025329;28;20187;-70
2022/10/19 04:54:18;;;;;;;24.57;17.20;;;15.20;1.00;;;;;;5027257;28;20218;-69
2022/10/19 04:56:43;;;;;;;19.50;14.10;;;15.20;1.00;;;;;;5026701;28;20168;-68
2022/10/19 04:59:09;;;;;;;29.40;17.10;;;15.20;1.00;;;;;;5066091;23;20190;-68
2022/10/19 05:01:36;;;;;;;19.00;16.47;;;15.20;1.00;;;;;;5026840;28;20675;-68
2022/10/19 05:04:02;;;;;;;25.17;18.40;;;15.20;1.00;;;;;;5019275;28;20454;-68
2022/10/19 05:06:30;;;;;;;22.33;16.40;;;15.20;1.00;;;;;;5032524;28;20913;-68
2022/10/19 05:08:56;;;;;;;27.40;16.80;;;15.10;1.00;;;;;;5031021;28;20426;-71
2022/10/19 05:11:21;;;;;;;22.37;15.77;;;15.10;1.00;;;;;;5013349;28;20962;-68
2022/10/19 05:13:47;;;;;;;24.33;16.70;;;15.00;1.00;;;;;;5016999;28;20180;-69
2022/10/19 05:16:16;;;;;;;27.80;16.97;;;15.20;1.00;;;;;;5012251;28;20177;-68
2022/10/19 05:18:49;;;;;;;19.53;17.10;;;15.30;1.00;;;;;;5025680;28;20180;-69
2022/10/19 05:21:16;;;;;;;36.93;23.47;;;15.30;1.00;;;;;;5025674;28;20452;-68
2022/10/19 05:23:42;;;;;;;46.60;29.87;;;15.30;1.00;;;;;;5018145;28;20485;-69
2022/10/19 05:26:18;;;;;;;56.07;27.13;;;15.40;1.00;;;;;;5011733;28;20899;-70
2022/10/19 05:28:55;;;;;;;40.93;22.13;;;15.50;1.00;;;;;;5022009;28;20170;-67
2022/10/19 05:31:23;;;;;;;31.27;18.40;;;15.50;1.00;;;;;;5014829;28;20437;-69
2022/10/19 05:33:49;;;;;;;40.07;19.07;;;15.50;1.00;;;;;;5017137;28;20493;-67
2022/10/19 05:36:36;;;;;;;28.27;18.60;;;15.50;1.00;;;;;;5012758;28;20524;-68
2022/10/19 05:39:04;;;;;;;22.33;15.73;;;15.50;1.00;;;;;;5021392;28;20254;-68
2022/10/19 05:41:29;;;;;;;25.80;17.07;;;15.40;1.00;;;;;;4998918;28;20612;-67
2022/10/19 05:44:00;;;;;;;26.87;17.80;;;15.40;1.00;;;;;;5019939;28;20529;-68
2022/10/19 05:46:27;;;;;;;23.20;17.00;;;15.50;1.00;;;;;;5011112;28;20261;-68
2022/10/19 05:48:54;;;;;;;27.50;18.20;;;15.50;1.00;;;;;;5007636;28;20443;-68
2022/10/19 05:51:22;;;;;;;23.60;16.17;;;15.50;1.00;;;;;;5010216;28;20512;-67
2022/10/19 05:53:48;;;;;;;40.80;18.70;;;15.40;1.00;;;;;;5019146;28;20438;-68
2022/10/19 05:56:18;;;;;;;20.40;16.13;;;15.40;1.00;;;;;;5006437;28;20859;-67
2022/10/19 05:58:44;;;;;;;23.73;16.30;;;15.40;1.00;;;;;;5010632;28;20895;-67
2022/10/19 06:01:10;;;;;;;21.03;16.07;;;15.40;1.00;;;;;;5010452;28;20632;-70
2022/10/19 06:03:36;;;;;;;29.30;17.90;;;15.30;1.00;;;;;;5013023;28;20577;-68
2022/10/19 06:06:04;;;;;;;31.80;16.77;;;15.40;1.00;;;;;;5011860;28;20536;-67
2022/10/19 06:08:30;;;;;;;26.13;17.03;;;15.40;1.00;;;;;;5018233;28;20644;-69
2022/10/19 06:11:13;;;;;;;24.10;17.13;;;15.40;1.00;;;;;;5025116;28;20482;-67
2022/10/19 06:13:40;;;;;;;27.13;16.43;;;15.50;1.00;;;;;;5024654;28;20191;-68
2022/10/19 06:16:07;;;;;;;30.43;17.53;;;15.50;1.00;;;;;;5025287;28;20496;-69
2022/10/19 06:18:33;;;;;;;28.67;17.73;;;15.40;1.00;;;;;;5001672;28;20589;-70
2022/10/19 06:21:14;;;;;;;21.33;15.80;;;15.50;1.00;;;;;;5016233;28;20419;-68
2022/10/19 06:23:40;;;;;;;24.40;15.77;;;15.30;1.00;;;;;;5015031;28;20461;-68
2022/10/19 06:26:10;;;;;;;28.50;16.87;;;15.10;1.00;;;;;;5010957;28;20415;-70
2022/10/19 06:28:37;;;;;;;22.50;15.67;;;15.20;1.00;;;;;;5012246;28;20528;-68
2022/10/19 06:31:03;;;;;;;34.80;17.37;;;15.10;1.00;;;;;;5010469;28;20439;-69
2022/10/19 06:33:30;;;;;;;23.13;17.20;;;15.10;1.00;;;;;;5011466;28;20419;-71
2022/10/19 06:36:12;;;;;;;20.03;15.23;;;15.10;1.00;;;;;;5014471;28;20426;-71
2022/10/19 06:38:39;;;;;;;21.83;15.93;;;15.10;1.00;;;;;;5017946;28;20474;-70
2022/10/19 06:41:05;;;;;;;23.20;16.10;;;15.20;1.00;;;;;;5016381;28;20449;-69
2022/10/19 06:43:30;;;;;;;25.73;16.67;;;15.20;1.00;;;;;;5018982;28;20569;-69
2022/10/19 06:45:56;;;;;;;32.67;18.87;;;15.10;1.00;;;;;;5017315;28;20500;-70
2022/10/19 06:48:22;;;;;;;21.90;15.40;;;15.10;1.00;;;;;;5025169;28;20172;-70
2022/10/19 06:50:58;;;;;;;21.70;15.67;;;15.10;1.00;;;;;;5020775;28;20505;-71
2022/10/19 06:53:25;;;;;;;23.60;17.40;;;15.00;1.00;;;;;;5017189;28;20203;-71
2022/10/19 06:55:51;;;;;;;26.17;17.00;;;15.10;1.00;;;;;;5014301;28;20429;-70
2022/10/19 06:58:17;;;;;;;26.53;15.17;;;15.00;1.00;;;;;;5013001;28;20427;-70
2022/10/19 07:00:43;;;;;;;29.70;16.33;;;15.10;1.00;;;;;;5013276;28;20311;-70
2022/10/19 07:03:08;;;;;;;25.60;17.80;;;15.20;1.00;;;;;;5012741;28;20236;-72
2022/10/19 07:05:34;;;;;;;24.63;16.47;;;15.20;1.00;;;;;;5021978;28;20167;-71
2022/10/19 07:08:00;;;;;;;25.73;17.50;;;15.20;1.00;;;;;;5025322;28;20168;-71
2022/10/19 07:10:25;;;;;;;21.30;15.80;;;15.20;1.00;;;;;;5025019;28;20187;-70
2022/10/19 07:12:51;;;;;;;23.77;16.43;;;15.30;1.00;;;;;;5019114;28;20278;-70
2022/10/19 07:15:17;;;;;;;30.80;17.53;;;15.30;1.00;;;;;;5027161;28;20282;-71
2022/10/19 07:17:42;;;;;;;26.83;16.93;;;15.20;1.00;;;;;;5016107;28;20183;-70
2022/10/19 07:20:09;;;;;;;31.77;18.20;;;15.10;1.00;;;;;;5025535;28;20179;-67
2022/10/19 07:22:35;;;;;;;21.70;16.73;;;15.20;1.00;;;;;;5024764;28;20942;-71
2022/10/19 07:25:00;;;;;;;23.13;16.27;;;15.10;1.00;;;;;;5026669;28;20438;-70
2022/10/19 07:27:26;;;;;;;22.73;16.50;;;14.90;1.00;;;;;;5025480;28;20193;-70
2022/10/19 07:29:52;;;;;;;24.70;17.03;;;15.00;1.00;;;;;;5027374;28;20504;-68
2022/10/19 07:32:17;;;;;;;25.80;16.70;;;15.10;1.00;;;;;;5024860;22;20216;-68
2022/10/19 07:34:43;;;;;;;20.97;16.07;;;15.20;1.00;;;;;;5010326;28;20874;-68
2022/10/19 07:37:09;;;;;;;21.40;15.90;;;15.10;1.00;;;;;;5010141;28;20234;-66
2022/10/19 07:39:35;;;;;;;21.10;16.50;;;15.20;1.00;;;;;;5009902;28;20172;-66
2022/10/19 07:42:01;;;;;;;25.13;15.57;;;15.30;1.00;;;;;;5008754;28;20192;-67
2022/10/19 07:44:26;;;;;;;23.87;16.67;;;15.30;1.00;;;;;;5009743;28;20449;-66
2022/10/19 07:46:52;;;;;;;20.40;15.27;;;15.30;1.00;;;;;;5004583;28;20176;-67
2022/10/19 07:49:18;;;;;;;21.10;16.70;;;15.30;1.00;;;;;;5009660;28;20224;-66
2022/10/19 07:51:45;;;;;;;21.33;14.27;;;15.30;1.00;;;;;;5008856;28;20322;-68
2022/10/19 07:54:12;;;;;;;19.10;14.53;;;15.30;1.00;;;;;;5009916;28;20469;-66
2022/10/19 07:56:37;;;;;;;16.50;14.20;;;15.10;1.00;;;;;;5007385;28;20419;-67
2022/10/19 07:59:04;;;;;;;24.63;16.50;;;15.10;1.00;;;;;;4990911;28;21387;-66
2022/10/19 08:01:37;;;;;;;22.30;16.97;;;15.20;1.00;;;;;;5007587;28;20901;-66
2022/10/19 08:04:02;;;;;;;19.67;15.10;;;15.10;1.00;;;;;;5008350;28;20455;-67
2022/10/19 08:06:28;;;;;;;21.37;15.53;;;15.10;1.00;;;;;;5008511;28;20411;-67
2022/10/19 08:08:55;;;;;;;19.93;14.67;;;15.10;1.00;;;;;;5008827;28;20179;-67
2022/10/19 08:11:24;;;;;;;17.40;14.77;;;15.20;1.00;;;;;;5008186;28;20184;-66
2022/10/19 08:13:50;;;;;;;26.83;20.93;;;15.10;1.00;;;;;;5008712;28;20510;-67
2022/10/19 08:16:40;;;;;;;24.77;12.90;;;15.10;1.00;;;;;;5007889;28;21059;-67
2022/10/19 08:19:08;;;;;;;24.63;19.23;;;15.30;1.00;;;;;;5003768;28;20427;-67
2022/10/19 08:21:35;;;;;;;20.23;14.60;;;15.20;1.00;;;;;;5007828;28;20479;-67
2022/10/19 08:24:01;;;;;;;18.57;13.33;;;15.20;1.00;;;;;;5008920;28;20454;-67
2022/10/19 08:26:28;;;;;;;14.30;11.70;;;15.20;1.00;;;;;;5008625;28;20424;-66
2022/10/19 08:29:16;;;;;;;11.80;10.47;;;15.10;1.00;;;;;;5008648;28;20238;-66
2022/10/19 08:31:43;;;;;;;12.07;10.33;;;15.10;1.00;;;;;;5007470;28;20466;-65
2022/10/19 08:34:10;;;;;;;12.47;10.37;;;15.30;1.00;;;;;;5009265;28;20415;-66
2022/10/19 08:36:35;;;;;;;11.43;9.93;;;15.20;1.00;;;;;;5007851;28;20477;-65
2022/10/19 08:39:06;;;;;;;10.67;8.83;;;15.20;1.00;;;;;;5009145;28;20423;-66
2022/10/19 08:41:38;;;;;;;13.60;10.83;;;15.30;1.00;;;;;;5008202;28;20196;-66
2022/10/19 08:44:10;;;;;;;17.50;13.07;;;15.30;1.00;;;;;;5009260;28;20455;-66
2022/10/19 08:46:59;;;;;;;18.20;12.10;;;15.10;1.00;;;;;;5007599;28;20778;-65
2022/10/19 08:49:26;;;;;;;15.30;11.50;;;15.30;1.00;;;;;;5010073;28;20715;-65
2022/10/19 08:51:58;;;;;;;14.70;10.90;;;15.40;1.00;;;;;;5008347;28;20472;-66
2022/10/19 08:54:31;;;;;;;12.27;10.00;;;15.40;1.00;;;;;;5004947;28;20942;-66
2022/10/19 08:57:06;;;;;;;14.17;11.33;;;15.40;1.00;;;;;;5006070;28;20919;-68
2022/10/19 08:59:43;;;;;;;12.43;10.77;;;15.40;1.00;;;;;;5005642;28;20524;-65
2022/10/19 09:02:31;;;;;;;11.43;10.23;;;15.30;1.00;;;;;;5007769;28;20434;-65
2022/10/19 09:05:32;;;;;;;11.37;8.43;;;15.40;1.00;;;;;;5008563;28;20450;-65
2022/10/19 09:07:58;;;;;;;9.07;8.17;;;15.10;1.00;;;;;;5000214;28;20454;-66
2022/10/19 09:10:36;;;;;;;10.20;8.87;;;15.10;1.00;;;;;;5005576;28;20755;-66
2022/10/19 09:13:42;;;;;;;11.80;9.20;;;14.90;1.00;;;;;;5009177;28;20442;-66
2022/10/19 09:16:13;;;;;;;9.50;8.07;;;15.10;1.00;;;;;;5005968;28;20542;-66
2022/10/19 09:18:40;;;;;;;11.13;9.63;;;14.90;1.00;;;;;;4999132;28;20462;-66
2022/10/19 09:21:18;;;;;;;11.17;9.17;;;15.00;1.00;;;;;;5008276;28;20498;-67
2022/10/19 09:24:05;;;;;;;12.80;9.37;;;15.00;1.00;;;;;;5008966;28;20478;-66
2022/10/19 09:26:56;;;;;;;13.73;9.30;;;15.00;1.00;;;;;;5008638;28;20446;-67
2022/10/19 09:29:43;;;;;;;11.40;9.97;;;15.10;1.00;;;;;;4994731;28;20405;-67
2022/10/19 09:32:17;;;;;;;11.90;9.60;;;15.10;1.00;;;;;;4987734;28;21035;-67
2022/10/19 09:34:49;;;;;;;11.90;10.50;;;15.10;1.00;;;;;;4996898;28;20764;-67
2022/10/19 09:37:18;;;;;;;12.10;9.83;;;15.20;1.00;;;;;;5008726;28;20455;-67
2022/10/19 09:39:44;;;;;;;16.30;10.13;;;15.30;1.00;;;;;;5008721;28;20557;-67
2022/10/19 09:42:17;;;;;;;14.00;10.40;;;15.30;1.00;;;;;;5007043;28;20802;-67
2022/10/19 09:44:42;;;;;;;12.93;9.90;;;15.20;1.00;;;;;;5007597;28;20201;-66
2022/10/19 09:47:34;;;;;;;16.53;11.37;;;15.20;1.00;;;;;;5010377;28;20433;-66
2022/10/19 09:50:20;;;;;;;15.77;10.30;;;15.30;1.00;;;;;;5011601;28;20596;-66
2022/10/19 09:53:10;;;;;;;16.90;10.47;;;15.10;1.00;;;;;;5010705;28;20875;-66
2022/10/19 09:55:40;;;;;;;17.87;12.33;;;15.10;1.00;;;;;;5010728;28;20419;-66
2022/10/19 09:58:14;;;;;;;14.90;10.73;;;15.20;1.00;;;;;;5011715;28;20407;-66
2022/10/19 10:00:42;;;;;;;12.73;10.30;;;15.20;1.00;;;;;;5006659;28;20800;-66
2022/10/19 10:03:42;;;;;;;11.50;10.03;;;15.40;1.00;;;;;;5010828;28;20438;-66
2022/10/19 10:06:15;;;;;;;14.60;10.80;;;15.40;1.00;;;;;;5011498;28;20454;-66
2022/10/19 10:08:47;;;;;;;15.13;10.10;;;15.30;1.00;;;;;;5010904;28;20936;-67
2022/10/19 10:11:23;;;;;;;12.07;10.77;;;15.40;1.00;;;;;;5009104;28;20427;-66
2022/10/19 10:13:53;;;;;;;10.97;9.80;;;15.30;1.00;;;;;;5010809;28;20513;-66
2022/10/19 10:16:22;;;;;;;11.30;9.40;;;15.20;1.00;;;;;;5010335;28;20457;-66
2022/10/19 10:18:50;;;;;;;11.50;10.10;;;15.30;1.00;;;;;;5011262;28;20436;-66
2022/10/19 10:21:24;;;;;;;12.03;10.23;;;15.30;1.00;;;;;;5010484;28;20434;-66
2022/10/19 10:24:10;;;;;;;14.57;11.00;;;15.30;1.00;;;;;;5010813;28;20549;-66
2022/10/19 10:26:45;;;;;;;14.87;10.60;;;15.50;1.00;;;;;;5010394;28;20506;-66
2022/10/19 10:29:26;;;;;;;12.87;10.57;;;15.50;1.00;;;;;;5010775;28;20413;-67
2022/10/19 10:31:57;;;;;;;17.63;9.87;;;15.40;1.00;;;;;;5007937;28;20457;-67
2022/10/19 10:34:32;;;;;;;14.70;11.13;;;15.40;1.00;;;;;;5009061;28;20426;-67
2022/10/19 10:36:58;;;;;;;11.77;10.53;;;15.50;1.00;;;;;;5004805;28;20475;-67
2022/10/19 10:39:27;;;;;;;12.13;9.80;;;15.40;1.00;;;;;;5010811;28;20838;-67
2022/10/19 10:41:54;;;;;;;12.23;9.73;;;15.40;1.00;;;;;;5009954;28;20431;-66
2022/10/19 10:44:25;;;;;;;12.33;11.03;;;15.50;1.00;;;;;;5010069;28;20512;-67
2022/10/19 10:47:12;;;;;;;10.73;9.23;;;15.30;1.00;;;;;;5009534;28;20424;-67
2022/10/19 10:49:41;;;;;;;12.03;9.87;;;15.20;1.00;;;;;;5009156;28;20415;-66
2022/10/19 10:52:16;;;;;;;12.90;10.43;;;15.30;1.00;;;;;;4996181;28;20440;-67
2022/10/19 10:54:56;;;;;;;10.57;9.47;;;15.40;1.00;;;;;;4995297;28;20481;-67
2022/10/19 10:57:24;;;;;;;10.47;9.40;;;15.50;1.00;;;;;;5005396;28;20749;-67
2022/10/19 11:00:06;;;;;;;11.47;9.30;;;15.50;1.00;;;;;;5006230;28;20481;-67
2022/10/19 11:02:55;;;;;;;11.17;9.90;;;15.50;1.00;;;;;;5010261;28;20485;-66
2022/10/19 11:05:28;;;;;;;12.43;9.07;;;15.60;1.00;;;;;;5008085;28;20462;-67
2022/10/19 11:08:06;;;;;;;10.60;9.50;;;15.60;1.00;;;;;;5000564;28;20435;-65
2022/10/19 11:10:48;;;;;;;12.87;9.90;;;15.70;1.00;;;;;;5019871;28;20778;-67
2022/10/19 11:13:36;;;;;;;12.80;9.93;;;15.70;1.00;;;;;;5004827;28;20449;-67
2022/10/19 11:16:17;;;;;;;11.40;9.60;;;15.60;1.00;;;;;;4977715;28;20507;-67
2022/10/19 11:19:10;;;;;;;11.77;9.37;;;15.60;1.00;;;;;;5009730;28;20733;-67
2022/10/19 11:21:55;;;;;;;9.53;8.53;;;15.60;1.00;;;;;;5009391;28;20431;-66
2022/10/19 11:24:41;;;;;;;10.70;9.57;;;15.60;1.00;;;;;;5009526;28;20477;-67
2022/10/19 11:27:40;;;;;;;16.40;10.50;;;15.60;1.00;;;;;;5008444;28;20411;-68
2022/10/19 11:30:19;;;;;;;13.33;9.20;;;15.60;1.00;;;;;;5010662;28;20798;-66
2022/10/19 11:33:10;;;;;;;10.97;9.53;;;15.70;1.00;;;;;;5008447;28;20454;-66
2022/10/19 11:35:55;;;;;;;11.50;9.50;;;15.60;1.00;;;;;;5013591;28;20534;-67
2022/10/19 11:38:34;;;;;;;11.60;8.63;;;15.60;1.00;;;;;;5000290;28;20411;-66
2022/10/19 11:41:36;;;;;;;11.13;8.90;;;15.60;1.00;;;;;;5007010;28;20422;-65
2022/10/19 11:44:36;;;;;;;8.97;8.07;;;15.70;1.00;;;;;;4958282;28;20477;-65
2022/10/19 11:47:29;;;;;;;11.27;9.77;;;15.90;1.00;;;;;;5008330;28;20459;-65
2022/10/19 11:50:09;;;;;;;9.80;8.87;;;15.90;1.00;;;;;;5009372;28;20947;-66
2022/10/19 11:52:37;;;;;;;12.77;8.63;;;15.80;1.00;;;;;;5008286;28;20534;-67
2022/10/19 11:55:15;;;;;;;10.13;9.07;;;15.80;1.00;;;;;;5002705;28;20770;-66
2022/10/19 11:57:55;;;;;;;10.10;8.30;;;15.90;1.00;;;;;;5007331;28;20727;-67
2022/10/19 12:00:21;;;;;;;11.40;9.13;;;15.90;1.00;;;;;;5003720;28;20411;-65
2022/10/19 12:03:32;;;;;;;9.30;8.07;;;16.00;1.00;;;;;;5010211;28;20822;-67
2022/10/19 12:06:21;;;;;;;9.87;8.80;;;16.00;1.00;;;;;;4925203;29;20911;-66
2022/10/19 12:09:08;;;;;;;10.67;9.30;;;15.90;1.00;;;;;;4919696;29;20517;-65
2022/10/19 12:12:12;;;;;;;13.03;8.47;;;15.90;1.00;;;;;;4927940;29;20756;-68
2022/10/19 12:14:40;;;;;;;8.73;7.30;;;15.80;1.00;;;;;;4895483;29;20440;-65
2022/10/19 12:17:13;;;;;;;10.70;8.90;;;15.70;1.00;;;;;;4928369;29;20411;-66
2022/10/19 12:19:45;;;;;;;12.70;8.03;;;15.90;1.00;;;;;;4929996;29;20736;-64
2022/10/19 12:22:15;;;;;;;15.13;8.83;;;15.90;1.00;;;;;;4927975;29;20466;-65
2022/10/19 12:24:42;;;;;;;8.27;7.13;;;15.90;1.00;;;;;;4928684;29;20558;-65
2022/10/19 12:27:15;;;;;;;9.30;7.37;;;15.90;1.00;;;;;;4929019;29;20415;-67
2022/10/19 12:29:45;;;;;;;14.57;8.20;;;15.90;1.00;;;;;;4928889;29;20516;-65
2022/10/19 12:32:15;;;;;;;11.10;7.30;;;15.90;1.00;;;;;;4927904;29;20458;-67
2022/10/19 12:35:07;;;;;;;12.60;10.10;;;15.90;1.00;;;;;;4929622;29;20506;-66
2022/10/19 12:37:57;;;;;;;9.93;8.17;;;15.90;1.00;;;;;;4996049;28;20415;-66
2022/10/19 12:40:27;;;;;;;10.00;7.07;;;15.90;1.00;;;;;;5008438;28;20427;-66
2022/10/19 12:42:58;;;;;;;11.47;8.30;;;15.80;1.00;;;;;;5009032;28;20458;-66
2022/10/19 12:45:27;;;;;;;14.23;9.40;;;15.80;1.00;;;;;;5008845;28;20458;-66
2022/10/19 12:48:23;;;;;;;17.33;9.97;;;15.80;1.00;;;;;;5008161;28;20458;-66
2022/10/19 12:50:49;;;;;;;10.30;9.30;;;15.90;1.00;;;;;;4996180;28;20510;-65
2022/10/19 12:53:24;;;;;;;12.70;8.60;;;15.90;1.00;;;;;;5009539;28;20514;-66
2022/10/19 12:56:20;;;;;;;10.50;9.40;;;16.00;1.00;;;;;;5008399;28;20687;-66
2022/10/19 12:59:03;;;;;;;10.80;9.40;;;15.90;1.00;;;;;;5008150;28;20427;-65
2022/10/19 13:01:50;;;;;;;11.00;8.73;;;16.00;1.00;;;;;;5007175;28;20936;-66
2022/10/19 13:04:25;;;;;;;18.13;8.30;;;16.00;1.00;;;;;;5007869;28;20835;-66